RYR73FS LEZL-LPPR
Flight info
| Callsign | RYR73FS |
|---|---|
| Flight time | 0h 47m |
| Altitude | 24000 |
| Route | SANTA M744 ROSAL UZ227 EXONA DCT ABLEG |
| Aircraft | B38M/M-SDE1FGHILORVWXY/HB1 |
Departure
| Time | 2026-04-26 21:57 |
|---|---|
| Airport | Seville Airport (LEZL) |
Arrival
| Time | 2026-04-26 22:44 |
|---|---|
| Airport | Francisco de Sá Carneiro Airport (LPPR) |
| Time | Latitude | Longitude | Altitude | Speed | Heading |
|---|---|---|---|---|---|
| 2026-04-26 21:33 | 37.42213 | -5.89947 | 96 ft | 0 kts | 315° |
| 2026-04-26 21:47 | 37.42203 | -5.89933 | 96 ft | 3 kts | 315° |
| 2026-04-26 21:47 | 37.42188 | -5.89915 | 96 ft | 3 kts | 314° |
| 2026-04-26 21:48 | 37.42174 | -5.89895 | 96 ft | 3 kts | 301° |
| 2026-04-26 21:48 | 37.42171 | -5.89879 | 95 ft | 2 kts | 246° |
| 2026-04-26 21:48 | 37.42177 | -5.89867 | 96 ft | 2 kts | 225° |
| 2026-04-26 21:48 | 37.42182 | -5.89861 | 95 ft | 0 kts | 224° |
| 2026-04-26 21:53 | 37.42173 | -5.89872 | 96 ft | 4 kts | 223° |
| 2026-04-26 21:53 | 37.42130 | -5.89923 | 96 ft | 16 kts | 224° |
| 2026-04-26 21:53 | 37.42052 | -5.90057 | 97 ft | 21 kts | 261° |
| 2026-04-26 21:54 | 37.42051 | -5.90219 | 96 ft | 12 kts | 270° |
| 2026-04-26 21:54 | 37.42013 | -5.90301 | 96 ft | 13 kts | 191° |
| 2026-04-26 21:54 | 37.41974 | -5.90354 | 97 ft | 7 kts | 271° |
| 2026-04-26 21:54 | 37.41977 | -5.90428 | 96 ft | 10 kts | 270° |
| 2026-04-26 21:55 | 37.41977 | -5.90537 | 96 ft | 15 kts | 270° |
| 2026-04-26 21:55 | 37.41977 | -5.90686 | 95 ft | 19 kts | 270° |
| 2026-04-26 21:55 | 37.41977 | -5.90874 | 93 ft | 21 kts | 266° |
| 2026-04-26 21:55 | 37.41920 | -5.91052 | 94 ft | 23 kts | 243° |
| 2026-04-26 21:56 | 37.41824 | -5.91187 | 94 ft | 15 kts | 180° |
| 2026-04-26 21:56 | 37.41789 | -5.91109 | 93 ft | 12 kts | 90° |
| 2026-04-26 21:56 | 37.41793 | -5.90960 | 95 ft | 27 kts | 90° |
| 2026-04-26 21:56 | 37.41790 | -5.90627 | 97 ft | 55 kts | 91° |
| 2026-04-26 21:57 | 37.41795 | -5.89771 | 101 ft | 139 kts | 89° |
| 2026-04-26 21:57 | 37.41825 | -5.88310 | 462 ft | 183 kts | 89° |
| 2026-04-26 21:57 | 37.41857 | -5.86560 | 925 ft | 216 kts | 91° |
| 2026-04-26 21:57 | 37.41814 | -5.84675 | 2062 ft | 212 kts | 92° |
| 2026-04-26 21:58 | 37.41778 | -5.82794 | 3136 ft | 220 kts | 90° |
| 2026-04-26 21:58 | 37.42062 | -5.80853 | 3941 ft | 238 kts | 64° |
| 2026-04-26 21:58 | 37.43183 | -5.79257 | 4794 ft | 255 kts | 34° |
| 2026-04-26 21:58 | 37.44937 | -5.78621 | 5614 ft | 275 kts | 359° |
| 2026-04-26 21:59 | 37.46763 | -5.79321 | 6774 ft | 281 kts | 331° |
| 2026-04-26 21:59 | 37.48213 | -5.81015 | 7722 ft | 293 kts | 305° |
| 2026-04-26 21:59 | 37.48972 | -5.83395 | 8777 ft | 297 kts | 280° |
| 2026-04-26 21:59 | 37.49258 | -5.85996 | 9761 ft | 303 kts | 278° |
| 2026-04-26 22:00 | 37.49555 | -5.88640 | 10633 ft | 309 kts | 281° |
| 2026-04-26 22:00 | 37.50179 | -5.91297 | 11229 ft | 325 kts | 291° |
| 2026-04-26 22:00 | 37.51067 | -5.94001 | 11821 ft | 339 kts | 294° |
| 2026-04-26 22:00 | 37.52093 | -5.96716 | 12585 ft | 345 kts | 297° |
| 2026-04-26 22:01 | 37.53201 | -5.99398 | 13573 ft | 346 kts | 298° |
| 2026-04-26 22:01 | 37.54369 | -6.02079 | 14347 ft | 351 kts | 299° |
| 2026-04-26 22:01 | 37.55561 | -6.04742 | 15100 ft | 354 kts | 299° |
| 2026-04-26 22:01 | 37.56797 | -6.07466 | 15844 ft | 358 kts | 299° |
| 2026-04-26 22:02 | 37.58051 | -6.10208 | 16545 ft | 363 kts | 300° |
| 2026-04-26 22:02 | 37.58890 | -6.12035 | 17020 ft | 365 kts | 299° |
| 2026-04-26 22:02 | 37.60573 | -6.15790 | 17955 ft | 371 kts | 299° |
| 2026-04-26 22:02 | 37.61847 | -6.18638 | 18591 ft | 375 kts | 299° |
| 2026-04-26 22:03 | 37.63131 | -6.21508 | 19198 ft | 377 kts | 299° |
| 2026-04-26 22:03 | 37.64428 | -6.24407 | 19817 ft | 380 kts | 299° |
| 2026-04-26 22:03 | 37.65731 | -6.27322 | 20411 ft | 383 kts | 299° |
| 2026-04-26 22:03 | 37.67046 | -6.30271 | 21007 ft | 386 kts | 299° |
| 2026-04-26 22:04 | 37.68365 | -6.33237 | 21594 ft | 389 kts | 298° |
| 2026-04-26 22:04 | 37.69696 | -6.36230 | 22175 ft | 392 kts | 298° |
| 2026-04-26 22:04 | 37.71036 | -6.39249 | 22748 ft | 395 kts | 298° |
| 2026-04-26 22:04 | 37.72381 | -6.42281 | 23310 ft | 398 kts | 298° |
| 2026-04-26 22:05 | 37.73722 | -6.45306 | 23829 ft | 400 kts | 298° |
| 2026-04-26 22:05 | 37.75089 | -6.48393 | 24013 ft | 403 kts | 298° |
| 2026-04-26 22:05 | 37.76475 | -6.51527 | 24027 ft | 403 kts | 298° |
| 2026-04-26 22:05 | 37.77841 | -6.54617 | 24036 ft | 402 kts | 298° |
| 2026-04-26 22:06 | 37.79204 | -6.57704 | 24036 ft | 402 kts | 298° |
| 2026-04-26 22:06 | 37.80547 | -6.60748 | 24037 ft | 402 kts | 298° |
| 2026-04-26 22:06 | 37.81911 | -6.63844 | 24041 ft | 402 kts | 298° |
| 2026-04-26 22:06 | 37.83269 | -6.66928 | 24040 ft | 402 kts | 298° |
| 2026-04-26 22:07 | 37.84630 | -6.70021 | 24040 ft | 402 kts | 298° |
| 2026-04-26 22:07 | 37.85985 | -6.73107 | 24041 ft | 402 kts | 298° |
| 2026-04-26 22:07 | 37.87348 | -6.76211 | 24042 ft | 402 kts | 298° |
| 2026-04-26 22:07 | 37.88261 | -6.78292 | 24044 ft | 402 kts | 298° |
| 2026-04-26 22:08 | 37.90059 | -6.82395 | 24040 ft | 404 kts | 298° |
| 2026-04-26 22:08 | 37.91463 | -6.85604 | 24037 ft | 417 kts | 298° |
| 2026-04-26 22:08 | 37.92890 | -6.88865 | 24035 ft | 429 kts | 298° |
| 2026-04-26 22:08 | 37.94332 | -6.92167 | 24034 ft | 439 kts | 298° |
| 2026-04-26 22:09 | 37.95828 | -6.95595 | 24033 ft | 447 kts | 298° |
| 2026-04-26 22:09 | 37.97345 | -6.99076 | 24031 ft | 453 kts | 298° |
| 2026-04-26 22:09 | 37.98872 | -7.02581 | 24034 ft | 454 kts | 298° |
| 2026-04-26 22:09 | 38.00397 | -7.06086 | 24036 ft | 454 kts | 298° |
| 2026-04-26 22:10 | 38.02054 | -7.09510 | 24026 ft | 454 kts | 308° |
| 2026-04-26 22:10 | 38.04323 | -7.12278 | 24038 ft | 454 kts | 321° |
| 2026-04-26 22:10 | 38.06780 | -7.14810 | 24031 ft | 455 kts | 320° |
| 2026-04-26 22:10 | 38.08403 | -7.16492 | 24034 ft | 455 kts | 320° |
| 2026-04-26 22:11 | 38.10869 | -7.19028 | 24031 ft | 455 kts | 321° |
| 2026-04-26 22:11 | 38.13330 | -7.21552 | 24031 ft | 455 kts | 321° |
| 2026-04-26 22:11 | 38.15824 | -7.24108 | 24033 ft | 455 kts | 321° |
| 2026-04-26 22:11 | 38.18265 | -7.26613 | 24031 ft | 455 kts | 321° |
| 2026-04-26 22:12 | 38.20723 | -7.29136 | 24028 ft | 455 kts | 321° |
| 2026-04-26 22:12 | 38.23192 | -7.31672 | 24029 ft | 455 kts | 321° |
| 2026-04-26 22:12 | 38.25661 | -7.34212 | 24029 ft | 455 kts | 321° |
| 2026-04-26 22:12 | 38.28124 | -7.36747 | 24031 ft | 455 kts | 321° |
| 2026-04-26 22:13 | 38.30596 | -7.39294 | 24026 ft | 455 kts | 321° |
| 2026-04-26 22:13 | 38.33054 | -7.41829 | 24028 ft | 455 kts | 321° |
| 2026-04-26 22:13 | 38.35514 | -7.44368 | 24024 ft | 455 kts | 321° |
| 2026-04-26 22:13 | 38.37972 | -7.46907 | 24029 ft | 455 kts | 321° |
| 2026-04-26 22:14 | 38.40435 | -7.49454 | 24026 ft | 455 kts | 321° |
| 2026-04-26 22:14 | 38.42894 | -7.51998 | 24023 ft | 456 kts | 320° |
| 2026-04-26 22:14 | 38.45359 | -7.54552 | 24027 ft | 456 kts | 321° |
| 2026-04-26 22:14 | 38.47828 | -7.57112 | 24029 ft | 456 kts | 321° |
| 2026-04-26 22:15 | 38.50295 | -7.59673 | 24028 ft | 456 kts | 320° |
| 2026-04-26 22:15 | 38.52758 | -7.62231 | 24028 ft | 456 kts | 320° |
| 2026-04-26 22:15 | 38.55234 | -7.64805 | 24031 ft | 461 kts | 320° |
| 2026-04-26 22:15 | 38.57724 | -7.67397 | 24032 ft | 462 kts | 320° |
| 2026-04-26 22:16 | 38.60223 | -7.69999 | 24029 ft | 462 kts | 320° |
| 2026-04-26 22:16 | 38.62719 | -7.72601 | 24029 ft | 462 kts | 320° |
| 2026-04-26 22:16 | 38.65205 | -7.75195 | 24029 ft | 462 kts | 320° |
| 2026-04-26 22:16 | 38.67793 | -7.77545 | 24024 ft | 462 kts | 330° |
| 2026-04-26 22:17 | 38.70764 | -7.79130 | 24028 ft | 463 kts | 345° |
| 2026-04-26 22:17 | 38.73904 | -7.80101 | 24029 ft | 463 kts | 345° |
| 2026-04-26 22:17 | 38.77022 | -7.81148 | 24029 ft | 463 kts | 345° |
| 2026-04-26 22:17 | 38.80144 | -7.82223 | 24028 ft | 463 kts | 345° |
| 2026-04-26 22:18 | 38.83260 | -7.83309 | 24032 ft | 463 kts | 344° |
| 2026-04-26 22:18 | 38.86363 | -7.84396 | 24032 ft | 463 kts | 344° |
| 2026-04-26 22:18 | 38.89473 | -7.85487 | 24028 ft | 463 kts | 344° |
| 2026-04-26 22:18 | 38.92575 | -7.86576 | 24027 ft | 463 kts | 344° |
| 2026-04-26 22:19 | 38.95684 | -7.87669 | 24028 ft | 463 kts | 344° |
| 2026-04-26 22:19 | 38.98797 | -7.88764 | 24025 ft | 463 kts | 344° |
| 2026-04-26 22:19 | 39.01900 | -7.89857 | 24032 ft | 463 kts | 345° |
| 2026-04-26 22:19 | 39.05013 | -7.90955 | 24033 ft | 463 kts | 344° |
| 2026-04-26 22:20 | 39.08120 | -7.92051 | 24034 ft | 463 kts | 345° |
| 2026-04-26 22:20 | 39.11229 | -7.93149 | 24029 ft | 463 kts | 345° |
| 2026-04-26 22:20 | 39.14334 | -7.94246 | 24033 ft | 463 kts | 345° |
| 2026-04-26 22:20 | 39.17436 | -7.95344 | 24034 ft | 462 kts | 345° |
| 2026-04-26 22:21 | 39.20542 | -7.96443 | 24035 ft | 462 kts | 345° |
| 2026-04-26 22:21 | 39.23643 | -7.97543 | 24037 ft | 462 kts | 345° |
| 2026-04-26 22:21 | 39.26751 | -7.98645 | 24038 ft | 462 kts | 345° |
| 2026-04-26 22:21 | 39.29852 | -7.99747 | 24034 ft | 462 kts | 345° |
| 2026-04-26 22:22 | 39.32962 | -8.00852 | 24043 ft | 462 kts | 345° |
| 2026-04-26 22:22 | 39.36056 | -8.01953 | 24040 ft | 462 kts | 345° |
| 2026-04-26 22:22 | 39.39156 | -8.03057 | 24042 ft | 462 kts | 345° |
| 2026-04-26 22:22 | 39.42228 | -8.04152 | 24045 ft | 462 kts | 345° |
| 2026-04-26 22:23 | 39.45322 | -8.05255 | 24049 ft | 462 kts | 345° |
| 2026-04-26 22:23 | 39.48424 | -8.06363 | 24050 ft | 462 kts | 345° |
| 2026-04-26 22:23 | 39.51519 | -8.07469 | 24048 ft | 461 kts | 345° |
| 2026-04-26 22:23 | 39.54621 | -8.08579 | 24055 ft | 461 kts | 345° |
| 2026-04-26 22:24 | 39.57709 | -8.09685 | 24052 ft | 461 kts | 345° |
| 2026-04-26 22:24 | 39.60804 | -8.10794 | 24055 ft | 461 kts | 345° |
| 2026-04-26 22:24 | 39.63937 | -8.11918 | 24064 ft | 461 kts | 345° |
| 2026-04-26 22:24 | 39.67038 | -8.13031 | 24062 ft | 461 kts | 345° |
| 2026-04-26 22:25 | 39.70127 | -8.14142 | 24066 ft | 461 kts | 345° |
| 2026-04-26 22:25 | 39.73184 | -8.15241 | 24068 ft | 461 kts | 345° |
| 2026-04-26 22:25 | 39.76281 | -8.16356 | 24066 ft | 461 kts | 345° |
| 2026-04-26 22:25 | 39.79372 | -8.17470 | 24067 ft | 461 kts | 345° |
| 2026-04-26 22:26 | 39.82467 | -8.18587 | 24001 ft | 461 kts | 345° |
| 2026-04-26 22:26 | 39.85554 | -8.19701 | 23813 ft | 461 kts | 345° |
| 2026-04-26 22:26 | 39.88626 | -8.20810 | 23343 ft | 453 kts | 345° |
| 2026-04-26 22:26 | 39.91642 | -8.21900 | 22804 ft | 445 kts | 345° |
| 2026-04-26 22:27 | 39.94598 | -8.22969 | 22308 ft | 436 kts | 345° |
| 2026-04-26 22:27 | 39.97507 | -8.24022 | 21827 ft | 428 kts | 345° |
| 2026-04-26 22:27 | 40.00352 | -8.25053 | 21349 ft | 421 kts | 345° |
| 2026-04-26 22:27 | 40.03151 | -8.26067 | 20871 ft | 415 kts | 345° |
| 2026-04-26 22:28 | 40.05915 | -8.27071 | 20406 ft | 409 kts | 345° |
| 2026-04-26 22:28 | 40.08636 | -8.28060 | 19947 ft | 405 kts | 345° |
| 2026-04-26 22:28 | 40.11336 | -8.29042 | 19483 ft | 401 kts | 345° |
| 2026-04-26 22:28 | 40.14016 | -8.30018 | 19033 ft | 397 kts | 345° |
| 2026-04-26 22:29 | 40.16673 | -8.30987 | 18580 ft | 395 kts | 345° |
| 2026-04-26 22:29 | 40.19277 | -8.31937 | 18093 ft | 392 kts | 345° |
| 2026-04-26 22:29 | 40.21896 | -8.32893 | 17611 ft | 390 kts | 345° |
| 2026-04-26 22:29 | 40.24509 | -8.33848 | 17153 ft | 388 kts | 345° |
| 2026-04-26 22:30 | 40.27102 | -8.34797 | 16703 ft | 385 kts | 345° |
| 2026-04-26 22:30 | 40.29674 | -8.35739 | 16260 ft | 382 kts | 345° |
| 2026-04-26 22:30 | 40.32242 | -8.36679 | 15813 ft | 380 kts | 345° |
| 2026-04-26 22:30 | 40.34744 | -8.37596 | 15369 ft | 377 kts | 345° |
| 2026-04-26 22:31 | 40.37264 | -8.38521 | 14935 ft | 375 kts | 345° |
| 2026-04-26 22:31 | 40.39763 | -8.39439 | 14499 ft | 372 kts | 345° |
| 2026-04-26 22:31 | 40.42252 | -8.40354 | 14058 ft | 369 kts | 345° |
| 2026-04-26 22:31 | 40.44730 | -8.41265 | 13582 ft | 368 kts | 345° |
| 2026-04-26 22:32 | 40.47185 | -8.42169 | 13119 ft | 366 kts | 345° |
| 2026-04-26 22:32 | 40.49629 | -8.43069 | 12664 ft | 363 kts | 345° |
| 2026-04-26 22:32 | 40.52056 | -8.43964 | 12228 ft | 361 kts | 345° |
| 2026-04-26 22:32 | 40.54467 | -8.44853 | 11793 ft | 359 kts | 345° |
| 2026-04-26 22:33 | 40.56873 | -8.45742 | 11359 ft | 357 kts | 345° |
| 2026-04-26 22:33 | 40.61514 | -8.47456 | 11115 ft | 333 kts | 345° |
| 2026-04-26 22:33 | 40.63691 | -8.48260 | 11119 ft | 316 kts | 345° |
| 2026-04-26 22:34 | 40.65752 | -8.49023 | 11121 ft | 300 kts | 345° |
| 2026-04-26 22:34 | 40.67750 | -8.49762 | 11034 ft | 299 kts | 345° |
| 2026-04-26 22:34 | 40.69751 | -8.50504 | 10758 ft | 298 kts | 345° |
| 2026-04-26 22:34 | 40.71743 | -8.51243 | 10498 ft | 297 kts | 345° |
| 2026-04-26 22:35 | 40.73733 | -8.51982 | 10233 ft | 296 kts | 345° |
| 2026-04-26 22:35 | 40.75705 | -8.52715 | 10108 ft | 293 kts | 345° |
| 2026-04-26 22:35 | 40.77675 | -8.53447 | 10078 ft | 295 kts | 345° |
| 2026-04-26 22:35 | 40.79699 | -8.54200 | 9260 ft | 311 kts | 345° |
| 2026-04-26 22:36 | 40.81816 | -8.54989 | 8464 ft | 321 kts | 345° |
| 2026-04-26 22:36 | 40.83974 | -8.55793 | 7766 ft | 320 kts | 345° |
| 2026-04-26 22:36 | 40.86102 | -8.56587 | 7109 ft | 314 kts | 345° |
| 2026-04-26 22:36 | 40.86779 | -8.56838 | 6993 ft | 309 kts | 345° |
| 2026-04-26 22:37 | 40.87913 | -8.57260 | 6864 ft | 298 kts | 345° |
| 2026-04-26 22:37 | 40.89904 | -8.58004 | 6310 ft | 301 kts | 345° |
| 2026-04-26 22:37 | 40.91907 | -8.58753 | 5985 ft | 292 kts | 346° |
| 2026-04-26 22:37 | 40.93804 | -8.59462 | 5709 ft | 277 kts | 346° |
| 2026-04-26 22:38 | 40.95617 | -8.60139 | 5458 ft | 262 kts | 346° |
| 2026-04-26 22:38 | 40.97304 | -8.60771 | 5362 ft | 241 kts | 346° |
| 2026-04-26 22:38 | 40.98874 | -8.61302 | 5144 ft | 227 kts | 350° |
| 2026-04-26 22:38 | 41.00384 | -8.61699 | 4792 ft | 222 kts | 350° |
| 2026-04-26 22:39 | 41.01878 | -8.62096 | 4421 ft | 217 kts | 350° |
| 2026-04-26 22:39 | 41.03346 | -8.62492 | 4053 ft | 213 kts | 350° |
| 2026-04-26 22:39 | 41.04784 | -8.62882 | 3686 ft | 207 kts | 350° |
| 2026-04-26 22:39 | 41.06150 | -8.63253 | 3370 ft | 192 kts | 350° |
| 2026-04-26 22:40 | 41.07421 | -8.63584 | 3018 ft | 181 kts | 351° |
| 2026-04-26 22:40 | 41.08630 | -8.63898 | 2643 ft | 174 kts | 351° |
| 2026-04-26 22:40 | 41.09808 | -8.64204 | 2304 ft | 172 kts | 350° |
| 2026-04-26 22:40 | 41.10942 | -8.64500 | 1983 ft | 159 kts | 350° |
| 2026-04-26 22:41 | 41.11977 | -8.64770 | 1799 ft | 148 kts | 351° |
| 2026-04-26 22:41 | 41.12990 | -8.65033 | 1602 ft | 148 kts | 351° |
| 2026-04-26 22:41 | 41.13992 | -8.65295 | 1402 ft | 146 kts | 350° |
| 2026-04-26 22:41 | 41.14987 | -8.65555 | 1225 ft | 146 kts | 349° |
| 2026-04-26 22:42 | 41.15977 | -8.65812 | 1071 ft | 144 kts | 349° |
| 2026-04-26 22:42 | 41.16959 | -8.66068 | 957 ft | 144 kts | 348° |
| 2026-04-26 22:42 | 41.17927 | -8.66320 | 941 ft | 142 kts | 349° |
| 2026-04-26 22:42 | 41.18899 | -8.66536 | 907 ft | 141 kts | 350° |
| 2026-04-26 22:43 | 41.19864 | -8.66778 | 836 ft | 141 kts | 348° |
| 2026-04-26 22:43 | 41.20828 | -8.67066 | 672 ft | 141 kts | 347° |
| 2026-04-26 22:43 | 41.21792 | -8.67337 | 514 ft | 142 kts | 348° |
| 2026-04-26 22:43 | 41.22767 | -8.67594 | 356 ft | 143 kts | 349° |
| 2026-04-26 22:44 | 41.23794 | -8.67863 | 246 ft | 151 kts | 348° |
| 2026-04-26 22:44 | 41.24732 | -8.68107 | 205 ft | 116 kts | 349° |
| 2026-04-26 22:44 | 41.25305 | -8.68256 | 178 ft | 69 kts | 349° |
| 2026-04-26 22:44 | 41.25595 | -8.68287 | 171 ft | 11 kts | 54° |
| 2026-04-26 22:45 | 41.25612 | -8.68185 | 170 ft | 13 kts | 87° |
| 2026-04-26 22:45 | 41.25589 | -8.68115 | 168 ft | 14 kts | 148° |
| 2026-04-26 22:45 | 41.25496 | -8.68078 | 170 ft | 14 kts | 168° |
| 2026-04-26 22:45 | 41.25408 | -8.68055 | 175 ft | 12 kts | 169° |
| 2026-04-26 22:46 | 41.25323 | -8.68032 | 177 ft | 14 kts | 168° |
| 2026-04-26 22:46 | 41.25216 | -8.68002 | 183 ft | 18 kts | 167° |
| 2026-04-26 22:46 | 41.25069 | -8.67963 | 188 ft | 26 kts | 169° |
| 2026-04-26 22:46 | 41.24870 | -8.67896 | 195 ft | 34 kts | 155° |
| 2026-04-26 22:47 | 41.24654 | -8.67798 | 212 ft | 31 kts | 169° |
| 2026-04-26 22:47 | 41.24444 | -8.67738 | 226 ft | 29 kts | 169° |
| 2026-04-26 22:47 | 41.24268 | -8.67645 | 233 ft | 26 kts | 136° |
| 2026-04-26 22:47 | 41.24114 | -8.67551 | 239 ft | 25 kts | 169° |
| 2026-04-26 22:48 | 41.23934 | -8.67504 | 239 ft | 27 kts | 169° |
| 2026-04-26 22:48 | 41.23742 | -8.67454 | 239 ft | 29 kts | 169° |
| 2026-04-26 22:48 | 41.23617 | -8.67405 | 239 ft | 16 kts | 138° |
| 2026-04-26 22:48 | 41.23592 | -8.67296 | 239 ft | 7 kts | 94° |
| 2026-04-26 22:49 | 41.23590 | -8.67242 | 239 ft | 2 kts | 92° |
| 2026-04-26 22:49 | 41.23590 | -8.67224 | 239 ft | 0 kts | 92° |
| 2026-04-26 22:49 | 41.23590 | -8.67222 | 239 ft | 0 kts | 92° |